sensor_id;sensor_type;location;lat;lon;timestamp;pressure;altitude;pressure_sealevel;temperature;humidity
36380;BME280;22411;53.016;18.632;2023-05-07T00:00:59;101457.19;;;5.35;100.00
36380;BME280;22411;53.016;18.632;2023-05-07T00:03:26;101460.75;;;5.31;100.00
36380;BME280;22411;53.016;18.632;2023-05-07T00:05:52;101464.16;;;5.32;100.00
36380;BME280;22411;53.016;18.632;2023-05-07T00:08:21;101463.44;;;5.27;100.00
36380;BME280;22411;53.016;18.632;2023-05-07T00:10:47;101450.66;;;5.25;100.00
36380;BME280;22411;53.016;18.632;2023-05-07T00:13:14;101461.06;;;5.20;100.00
36380;BME280;22411;53.016;18.632;2023-05-07T00:15:40;101456.06;;;5.17;100.00
36380;BME280;22411;53.016;18.632;2023-05-07T00:18:06;101459.66;;;5.12;100.00
36380;BME280;22411;53.016;18.632;2023-05-07T00:20:32;101456.31;;;5.08;100.00
36380;BME280;22411;53.016;18.632;2023-05-07T00:22:58;101459.81;;;5.06;100.00
36380;BME280;22411;53.016;18.632;2023-05-07T00:25:24;101459.97;;;5.01;100.00
36380;BME280;22411;53.016;18.632;2023-05-07T00:27:50;101459.97;;;5.01;100.00
36380;BME280;22411;53.016;18.632;2023-05-07T00:30:16;101460.06;;;4.98;100.00
36380;BME280;22411;53.016;18.632;2023-05-07T00:32:44;101457.53;;;4.96;100.00
36380;BME280;22411;53.016;18.632;2023-05-07T00:35:14;101453.31;;;4.94;100.00
36380;BME280;22411;53.016;18.632;2023-05-07T00:37:40;101464.50;;;4.93;100.00
36380;BME280;22411;53.016;18.632;2023-05-07T00:40:07;101456.00;;;4.91;100.00
36380;BME280;22411;53.016;18.632;2023-05-07T00:42:34;101471.41;;;4.91;100.00
36380;BME280;22411;53.016;18.632;2023-05-07T00:44:59;101468.91;;;4.88;100.00
36380;BME280;22411;53.016;18.632;2023-05-07T00:47:28;101469.88;;;4.84;100.00
36380;BME280;22411;53.016;18.632;2023-05-07T00:49:54;101471.63;;;4.83;100.00
36380;BME280;22411;53.016;18.632;2023-05-07T00:52:21;101470.84;;;4.81;100.00
36380;BME280;22411;53.016;18.632;2023-05-07T00:54:51;101469.16;;;4.80;100.00
36380;BME280;22411;53.016;18.632;2023-05-07T00:57:21;101471.81;;;4.77;100.00
36380;BME280;22411;53.016;18.632;2023-05-07T00:59:48;101469.22;;;4.77;100.00
36380;BME280;22411;53.016;18.632;2023-05-07T01:02:15;101474.56;;;4.71;100.00
36380;BME280;22411;53.016;18.632;2023-05-07T01:04:41;101469.59;;;4.65;100.00
36380;BME280;22411;53.016;18.632;2023-05-07T01:07:07;101475.59;;;4.64;100.00
36380;BME280;22411;53.016;18.632;2023-05-07T01:09:34;101475.56;;;4.65;100.00
36380;BME280;22411;53.016;18.632;2023-05-07T01:12:03;101479.75;;;4.68;100.00
36380;BME280;22411;53.016;18.632;2023-05-07T01:14:29;101478.03;;;4.68;100.00
36380;BME280;22411;53.016;18.632;2023-05-07T01:16:58;101486.56;;;4.70;100.00
36380;BME280;22411;53.016;18.632;2023-05-07T01:19:24;101471.16;;;4.69;100.00
36380;BME280;22411;53.016;18.632;2023-05-07T01:21:56;101476.34;;;4.67;100.00
36380;BME280;22411;53.016;18.632;2023-05-07T01:24:27;101477.25;;;4.66;100.00
36380;BME280;22411;53.016;18.632;2023-05-07T01:26:54;101480.72;;;4.64;100.00
36380;BME280;22411;53.016;18.632;2023-05-07T01:29:20;101478.16;;;4.64;100.00
36380;BME280;22411;53.016;18.632;2023-05-07T01:31:47;101485.03;;;4.63;100.00
36380;BME280;22411;53.016;18.632;2023-05-07T01:34:17;101482.44;;;4.65;100.00
36380;BME280;22411;53.016;18.632;2023-05-07T01:36:44;101492.06;;;4.57;100.00
36380;BME280;22411;53.016;18.632;2023-05-07T01:39:12;101488.72;;;4.55;100.00
36380;BME280;22411;53.016;18.632;2023-05-07T01:41:39;101488.00;;;4.50;100.00
36380;BME280;22411;53.016;18.632;2023-05-07T01:44:05;101489.00;;;4.44;100.00
36380;BME280;22411;53.016;18.632;2023-05-07T01:46:33;101484.84;;;4.40;100.00
36380;BME280;22411;53.016;18.632;2023-05-07T01:49:00;101490.03;;;4.37;100.00
36380;BME280;22411;53.016;18.632;2023-05-07T01:51:27;101491.88;;;4.32;100.00
36380;BME280;22411;53.016;18.632;2023-05-07T01:53:53;101492.06;;;4.26;100.00
36380;BME280;22411;53.016;18.632;2023-05-07T01:56:19;101493.84;;;4.24;100.00
36380;BME280;22411;53.016;18.632;2023-05-07T01:58:46;101493.00;;;4.22;100.00
36380;BME280;22411;53.016;18.632;2023-05-07T02:01:13;101495.72;;;4.17;100.00
36380;BME280;22411;53.016;18.632;2023-05-07T02:03:40;101489.88;;;4.10;100.00
36380;BME280;22411;53.016;18.632;2023-05-07T02:06:07;101498.47;;;4.09;100.00
36380;BME280;22411;53.016;18.632;2023-05-07T02:08:33;101494.28;;;4.05;100.00
36380;BME280;22411;53.016;18.632;2023-05-07T02:11:00;101501.16;;;4.05;100.00
36380;BME280;22411;53.016;18.632;2023-05-07T02:13:32;101502.03;;;4.04;100.00
36380;BME280;22411;53.016;18.632;2023-05-07T02:15:59;101502.03;;;4.04;100.00
36380;BME280;22411;53.016;18.632;2023-05-07T02:18:26;101501.25;;;4.02;100.00
36380;BME280;22411;53.016;18.632;2023-05-07T02:20:53;101502.16;;;3.99;100.00
36380;BME280;22411;53.016;18.632;2023-05-07T02:23:19;101502.19;;;3.98;100.00
36380;BME280;22411;53.016;18.632;2023-05-07T02:25:46;101504.81;;;3.96;100.00
36380;BME280;22411;53.016;18.632;2023-05-07T02:28:13;101507.38;;;3.94;100.00
36380;BME280;22411;53.016;18.632;2023-05-07T02:30:40;101514.34;;;3.91;100.00
36380;BME280;22411;53.016;18.632;2023-05-07T02:33:07;101519.53;;;3.88;100.00
36380;BME280;22411;53.016;18.632;2023-05-07T02:35:35;101522.06;;;3.89;100.00
36380;BME280;22411;53.016;18.632;2023-05-07T02:38:02;101517.81;;;3.88;100.00
36380;BME280;22411;53.016;18.632;2023-05-07T02:40:29;101520.47;;;3.85;100.00
36380;BME280;22411;53.016;18.632;2023-05-07T02:42:55;101519.63;;;3.83;100.00
36380;BME280;22411;53.016;18.632;2023-05-07T02:45:21;101510.31;;;3.81;100.00
36380;BME280;22411;53.016;18.632;2023-05-07T02:47:47;101520.59;;;3.79;100.00
36380;BME280;22411;53.016;18.632;2023-05-07T02:50:14;101524.91;;;3.77;100.00
36380;BME280;22411;53.016;18.632;2023-05-07T02:52:40;101525.75;;;3.78;100.00
36380;BME280;22411;53.016;18.632;2023-05-07T02:55:08;101530.09;;;3.74;100.00
36380;BME280;22411;53.016;18.632;2023-05-07T02:57:34;101527.63;;;3.71;100.00
36380;BME280;22411;53.016;18.632;2023-05-07T03:00:15;101523.34;;;3.72;100.00
36380;BME280;22411;53.016;18.632;2023-05-07T03:02:42;101526.75;;;3.72;100.00
36380;BME280;22411;53.016;18.632;2023-05-07T03:05:09;101527.63;;;3.71;100.00
36380;BME280;22411;53.016;18.632;2023-05-07T03:07:36;101527.63;;;3.71;100.00
36380;BME280;22411;53.016;18.632;2023-05-07T03:10:03;101530.19;;;3.71;100.00
36380;BME280;22411;53.016;18.632;2023-05-07T03:12:30;101534.44;;;3.72;100.00
36380;BME280;22411;53.016;18.632;2023-05-07T03:14:58;101537.84;;;3.73;100.00
36380;BME280;22411;53.016;18.632;2023-05-07T03:17:24;101538.72;;;3.72;100.00
36380;BME280;22411;53.016;18.632;2023-05-07T03:19:53;101536.97;;;3.74;100.00
36380;BME280;22411;53.016;18.632;2023-05-07T03:22:19;101541.28;;;3.72;100.00
36380;BME280;22411;53.016;18.632;2023-05-07T03:24:46;101541.25;;;3.73;100.00
36380;BME280;22411;53.016;18.632;2023-05-07T03:27:12;101536.97;;;3.74;100.00
36380;BME280;22411;53.016;18.632;2023-05-07T03:29:39;101540.31;;;3.77;100.00
36380;BME280;22411;53.016;18.632;2023-05-07T03:32:06;101538.69;;;3.75;100.00
36380;BME280;22411;53.016;18.632;2023-05-07T03:34:32;101547.09;;;3.80;100.00
36380;BME280;22411;53.016;18.632;2023-05-07T03:36:58;101552.19;;;3.81;100.00
36380;BME280;22411;53.016;18.632;2023-05-07T03:39:24;101551.34;;;3.79;100.00
36380;BME280;22411;53.016;18.632;2023-05-07T03:41:50;101552.25;;;3.78;100.00
36380;BME280;22411;53.016;18.632;2023-05-07T03:44:16;101552.22;;;3.80;100.00
36380;BME280;22411;53.016;18.632;2023-05-07T03:46:42;101558.16;;;3.82;100.00
36380;BME280;22411;53.016;18.632;2023-05-07T03:49:08;101557.31;;;3.81;100.00
36380;BME280;22411;53.016;18.632;2023-05-07T03:51:34;101562.41;;;3.83;100.00
36380;BME280;22411;53.016;18.632;2023-05-07T03:54:02;101561.44;;;3.87;100.00
36380;BME280;22411;53.016;18.632;2023-05-07T03:56:27;101570.00;;;3.87;100.00
36380;BME280;22411;53.016;18.632;2023-05-07T03:58:54;101572.50;;;3.90;100.00
36380;BME280;22411;53.016;18.632;2023-05-07T04:01:20;101572.44;;;3.92;100.00
36380;BME280;22411;53.016;18.632;2023-05-07T04:03:46;101569.78;;;3.95;100.00
36380;BME280;22411;53.016;18.632;2023-05-07T04:06:12;101573.13;;;3.99;100.00
36380;BME280;22411;53.016;18.632;2023-05-07T04:08:38;101575.63;;;4.02;100.00
36380;BME280;22411;53.016;18.632;2023-05-07T04:11:05;101583.22;;;4.06;100.00
36380;BME280;22411;53.016;18.632;2023-05-07T04:13:32;101586.53;;;4.10;100.00
36380;BME280;22411;53.016;18.632;2023-05-07T04:16:01;101580.47;;;4.14;100.00
36380;BME280;22411;53.016;18.632;2023-05-07T04:18:28;101597.44;;;4.19;100.00
36380;BME280;22411;53.016;18.632;2023-05-07T04:20:55;101599.00;;;4.25;100.00
36380;BME280;22411;53.016;18.632;2023-05-07T04:23:21;101596.31;;;4.30;100.00
36380;BME280;22411;53.016;18.632;2023-05-07T04:25:48;101599.63;;;4.35;100.00
36380;BME280;22411;53.016;18.632;2023-05-07T04:28:15;101596.06;;;4.40;100.00
36380;BME280;22411;53.016;18.632;2023-05-07T04:30:41;101604.38;;;4.50;100.00
36380;BME280;22411;53.016;18.632;2023-05-07T04:33:08;101613.63;;;4.56;100.00
36380;BME280;22411;53.016;18.632;2023-05-07T04:35:35;101614.31;;;4.62;100.00
36380;BME280;22411;53.016;18.632;2023-05-07T04:38:02;101615.88;;;4.68;100.00
36380;BME280;22411;53.016;18.632;2023-05-07T04:40:28;101603.81;;;4.71;100.00
36380;BME280;22411;53.016;18.632;2023-05-07T04:42:55;101617.28;;;4.80;100.00
36380;BME280;22411;53.016;18.632;2023-05-07T04:45:21;101626.47;;;4.88;100.00
36380;BME280;22411;53.016;18.632;2023-05-07T04:47:49;101623.00;;;4.91;100.00
36380;BME280;22411;53.016;18.632;2023-05-07T04:50:16;101616.84;;;4.95;100.00
36380;BME280;22411;53.016;18.632;2023-05-07T04:52:45;101623.53;;;5.02;100.00
36380;BME280;22411;53.016;18.632;2023-05-07T04:55:12;101626.00;;;5.05;100.00
36380;BME280;22411;53.016;18.632;2023-05-07T04:57:39;101626.72;;;5.10;100.00
36380;BME280;22411;53.016;18.632;2023-05-07T05:00:08;101623.13;;;5.17;100.00
36380;BME280;22411;53.016;18.632;2023-05-07T05:02:37;101627.13;;;5.26;100.00
36380;BME280;22411;53.016;18.632;2023-05-07T05:05:03;101631.25;;;5.32;100.00
36380;BME280;22411;53.016;18.632;2023-05-07T05:07:30;101635.34;;;5.39;100.00
36380;BME280;22411;53.016;18.632;2023-05-07T05:09:57;101635.94;;;5.47;100.00
36380;BME280;22411;53.016;18.632;2023-05-07T05:12:24;101634.03;;;5.54;100.00
36380;BME280;22411;53.016;18.632;2023-05-07T05:14:50;101639.88;;;5.60;100.00
36380;BME280;22411;53.016;18.632;2023-05-07T05:17:17;101646.50;;;5.67;100.00
36380;BME280;22411;53.016;18.632;2023-05-07T05:19:42;101648.88;;;5.73;100.00
36380;BME280;22411;53.016;18.632;2023-05-07T05:22:09;101653.84;;;5.80;100.00
36380;BME280;22411;53.016;18.632;2023-05-07T05:24:36;101656.25;;;5.86;100.00
36380;BME280;22411;53.016;18.632;2023-05-07T05:27:02;101649.16;;;5.94;100.00
36380;BME280;22411;53.016;18.632;2023-05-07T05:29:29;101652.38;;;6.00;100.00
36380;BME280;22411;53.016;18.632;2023-05-07T05:31:57;101658.97;;;6.09;100.00
36380;BME280;22411;53.016;18.632;2023-05-07T05:34:23;101660.50;;;6.15;100.00
36380;BME280;22411;53.016;18.632;2023-05-07T05:36:50;101667.25;;;6.19;100.00
36380;BME280;22411;53.016;18.632;2023-05-07T05:39:16;101669.69;;;6.23;100.00
36380;BME280;22411;53.016;18.632;2023-05-07T05:41:42;101670.41;;;6.27;100.00
36380;BME280;22411;53.016;18.632;2023-05-07T05:44:09;101672.75;;;6.35;100.00
36380;BME280;22411;53.016;18.632;2023-05-07T05:46:35;101669.28;;;6.36;100.00
36380;BME280;22411;53.016;18.632;2023-05-07T05:49:02;101672.69;;;6.36;100.00
36380;BME280;22411;53.016;18.632;2023-05-07T05:51:29;101682.06;;;6.39;100.00
36380;BME280;22411;53.016;18.632;2023-05-07T05:53:56;101679.53;;;6.37;100.00
36380;BME280;22411;53.016;18.632;2023-05-07T05:56:23;101681.88;;;6.45;100.00
36380;BME280;22411;53.016;18.632;2023-05-07T05:58:49;101685.03;;;6.53;100.00
36380;BME280;22411;53.016;18.632;2023-05-07T06:01:17;101684.78;;;6.61;100.00
36380;BME280;22411;53.016;18.632;2023-05-07T06:03:44;101683.59;;;6.71;100.00
36380;BME280;22411;53.016;18.632;2023-05-07T06:06:11;101682.63;;;6.73;100.00
36380;BME280;22411;53.016;18.632;2023-05-07T06:08:37;101686.84;;;6.76;100.00
36380;BME280;22411;53.016;18.632;2023-05-07T06:11:04;101686.78;;;6.77;100.00
36380;BME280;22411;53.016;18.632;2023-05-07T06:13:30;101686.50;;;6.85;100.00
36380;BME280;22411;53.016;18.632;2023-05-07T06:15:58;101679.59;;;6.87;100.00
36380;BME280;22411;53.016;18.632;2023-05-07T06:18:25;101683.69;;;6.93;100.00
36380;BME280;22411;53.016;18.632;2023-05-07T06:20:52;101685.44;;;6.92;100.00
36380;BME280;22411;53.016;18.632;2023-05-07T06:23:19;101682.53;;;7.01;100.00
36380;BME280;22411;53.016;18.632;2023-05-07T06:25:50;101689.22;;;7.07;100.00
36380;BME280;22411;53.016;18.632;2023-05-07T06:28:16;101690.84;;;7.10;100.00
36380;BME280;22411;53.016;18.632;2023-05-07T06:30:43;101691.41;;;7.18;100.00
36380;BME280;22411;53.016;18.632;2023-05-07T06:33:10;101692.94;;;7.23;100.00
36380;BME280;22411;53.016;18.632;2023-05-07T06:35:39;101691.75;;;7.32;100.00
36380;BME280;22411;53.016;18.632;2023-05-07T06:38:05;101694.00;;;7.41;100.00
36380;BME280;22411;53.016;18.632;2023-05-07T06:40:32;101693.50;;;7.55;100.00
36380;BME280;22411;53.016;18.632;2023-05-07T06:42:59;101699.19;;;7.65;100.00
36380;BME280;22411;53.016;18.632;2023-05-07T06:45:27;101697.06;;;7.74;100.00
36380;BME280;22411;53.016;18.632;2023-05-07T06:47:53;101703.69;;;7.81;100.00
36380;BME280;22411;53.016;18.632;2023-05-07T06:50:20;101703.28;;;7.92;100.00
36380;BME280;22411;53.016;18.632;2023-05-07T06:52:47;101695.16;;;8.01;100.00
36380;BME280;22411;53.016;18.632;2023-05-07T06:55:14;101698.06;;;8.16;100.00
36380;BME280;22411;53.016;18.632;2023-05-07T06:57:40;101701.91;;;8.27;100.00
36380;BME280;22411;53.016;18.632;2023-05-07T07:00:07;101699.72;;;8.40;100.00
36380;BME280;22411;53.016;18.632;2023-05-07T07:02:36;101706.22;;;8.49;100.00
36380;BME280;22411;53.016;18.632;2023-05-07T07:05:04;101708.53;;;8.56;100.00
36380;BME280;22411;53.016;18.632;2023-05-07T07:07:30;101710.53;;;8.70;100.00
36380;BME280;22411;53.016;18.632;2023-05-07T07:10:01;101712.34;;;8.88;100.00
36380;BME280;22411;53.016;18.632;2023-05-07T07:12:30;101704.22;;;8.98;100.00
36380;BME280;22411;53.016;18.632;2023-05-07T07:14:56;101708.34;;;9.02;100.00
36380;BME280;22411;53.016;18.632;2023-05-07T07:17:22;101708.78;;;9.11;100.00
36380;BME280;22411;53.016;18.632;2023-05-07T07:19:49;101710.88;;;9.22;100.00
36380;BME280;22411;53.016;18.632;2023-05-07T07:22:18;101711.28;;;9.33;100.00
36380;BME280;22411;53.016;18.632;2023-05-07T07:24:45;101716.03;;;9.42;100.00
36380;BME280;22411;53.016;18.632;2023-05-07T07:27:11;101717.38;;;9.51;100.00
36380;BME280;22411;53.016;18.632;2023-05-07T07:29:38;101719.63;;;9.59;100.00
36380;BME280;22411;53.016;18.632;2023-05-07T07:32:04;101720.88;;;9.69;100.00
36380;BME280;22411;53.016;18.632;2023-05-07T07:34:30;101716.06;;;9.80;100.00
36380;BME280;22411;53.016;18.632;2023-05-07T07:36:56;101716.34;;;9.93;100.00
36380;BME280;22411;53.016;18.632;2023-05-07T07:39:23;101726.03;;;10.07;100.00
36380;BME280;22411;53.016;18.632;2023-05-07T07:41:50;101716.91;;;10.17;100.00
36380;BME280;22411;53.016;18.632;2023-05-07T07:44:16;101719.03;;;10.28;100.00
36380;BME280;22411;53.016;18.632;2023-05-07T07:46:43;101720.34;;;10.36;100.00
36380;BME280;22411;53.016;18.632;2023-05-07T07:49:10;101719.75;;;10.48;100.00
36380;BME280;22411;53.016;18.632;2023-05-07T07:51:36;101726.16;;;10.59;100.00
36380;BME280;22411;53.016;18.632;2023-05-07T07:54:03;101727.16;;;10.73;100.00
36380;BME280;22411;53.016;18.632;2023-05-07T07:56:29;101728.00;;;10.91;100.00
36380;BME280;22411;53.016;18.632;2023-05-07T07:58:56;101734.41;;;11.02;100.00
36380;BME280;22411;53.016;18.632;2023-05-07T08:01:26;101732.94;;;11.13;100.00
36380;BME280;22411;53.016;18.632;2023-05-07T08:03:52;101734.31;;;11.20;100.00
36380;BME280;22411;53.016;18.632;2023-05-07T08:06:19;101731.09;;;11.15;100.00
36380;BME280;22411;53.016;18.632;2023-05-07T08:08:46;101728.88;;;11.25;100.00
36380;BME280;22411;53.016;18.632;2023-05-07T08:11:13;101729.63;;;11.44;100.00
36380;BME280;22411;53.016;18.632;2023-05-07T08:13:41;101736.41;;;11.63;100.00
36380;BME280;22411;53.016;18.632;2023-05-07T08:16:09;101731.72;;;11.69;100.00
36380;BME280;22411;53.016;18.632;2023-05-07T08:18:36;101739.84;;;11.79;100.00
36380;BME280;22411;53.016;18.632;2023-05-07T08:21:02;101741.50;;;11.97;100.00
36380;BME280;22411;53.016;18.632;2023-05-07T08:23:31;101740.22;;;12.20;100.00
36380;BME280;22411;53.016;18.632;2023-05-07T08:26:01;101746.25;;;12.37;100.00
36380;BME280;22411;53.016;18.632;2023-05-07T08:28:28;101748.75;;;12.38;100.00
36380;BME280;22411;53.016;18.632;2023-05-07T08:30:55;101746.16;;;12.38;100.00
36380;BME280;22411;53.016;18.632;2023-05-07T08:33:23;101751.09;;;12.43;100.00
36380;BME280;22411;53.016;18.632;2023-05-07T08:35:50;101755.09;;;12.48;100.00
36380;BME280;22411;53.016;18.632;2023-05-07T08:38:18;101759.63;;;12.61;100.00
36380;BME280;22411;53.016;18.632;2023-05-07T08:40:44;101750.75;;;12.79;100.00
36380;BME280;22411;53.016;18.632;2023-05-07T08:43:14;101761.28;;;12.92;100.00
36380;BME280;22411;53.016;18.632;2023-05-07T08:45:44;101759.38;;;13.09;100.00
36380;BME280;22411;53.016;18.632;2023-05-07T08:48:18;101756.91;;;13.37;100.00
36380;BME280;22411;53.016;18.632;2023-05-07T08:50:46;101766.22;;;13.41;100.00
36380;BME280;22411;53.016;18.632;2023-05-07T08:53:14;101766.13;;;13.56;100.00
36380;BME280;22411;53.016;18.632;2023-05-07T08:55:44;101768.19;;;13.66;100.00
36380;BME280;22411;53.016;18.632;2023-05-07T08:58:11;101768.47;;;13.61;100.00
36380;BME280;22411;53.016;18.632;2023-05-07T09:00:37;101769.75;;;13.54;100.00
36380;BME280;22411;53.016;18.632;2023-05-07T09:03:06;101764.44;;;13.70;100.00
36380;BME280;22411;53.016;18.632;2023-05-07T09:05:32;101774.47;;;13.76;100.00
36380;BME280;22411;53.016;18.632;2023-05-07T09:08:00;101776.91;;;13.93;100.00
36380;BME280;22411;53.016;18.632;2023-05-07T09:10:26;101784.34;;;13.99;100.00
36380;BME280;22411;53.016;18.632;2023-05-07T09:12:52;101787.38;;;14.06;100.00
36380;BME280;22411;53.016;18.632;2023-05-07T09:15:24;101792.28;;;14.25;100.00
36380;BME280;22411;53.016;18.632;2023-05-07T09:17:51;101786.72;;;14.02;100.00
36380;BME280;22411;53.016;18.632;2023-05-07T09:20:18;101779.16;;;14.12;100.00
36380;BME280;22411;53.016;18.632;2023-05-07T09:22:44;101783.28;;;14.43;100.00
36380;BME280;22411;53.016;18.632;2023-05-07T09:25:13;101789.56;;;14.26;100.00
36380;BME280;22411;53.016;18.632;2023-05-07T09:27:41;101783.09;;;14.73;100.00
36380;BME280;22411;53.016;18.632;2023-05-07T09:30:08;101786.47;;;15.01;100.00
36380;BME280;22411;53.016;18.632;2023-05-07T09:32:36;101788.13;;;14.89;100.00
36380;BME280;22411;53.016;18.632;2023-05-07T09:35:04;101788.91;;;15.42;100.00
36380;BME280;22411;53.016;18.632;2023-05-07T09:37:31;101787.25;;;15.41;100.00
36380;BME280;22411;53.016;18.632;2023-05-07T09:39:58;101793.19;;;15.43;100.00
36380;BME280;22411;53.016;18.632;2023-05-07T09:42:25;101788.81;;;15.69;100.00
36380;BME280;22411;53.016;18.632;2023-05-07T09:44:52;101797.44;;;15.95;99.88
36380;BME280;22411;53.016;18.632;2023-05-07T09:47:20;101790.28;;;16.34;99.01
36380;BME280;22411;53.016;18.632;2023-05-07T09:49:48;101782.97;;;16.98;93.14
36380;BME280;22411;53.016;18.632;2023-05-07T09:52:16;101789.13;;;16.97;92.19
36380;BME280;22411;53.016;18.632;2023-05-07T09:54:43;101794.38;;;16.97;97.85
36380;BME280;22411;53.016;18.632;2023-05-07T09:57:11;101787.97;;;17.01;92.83
36380;BME280;22411;53.016;18.632;2023-05-07T09:59:38;101800.53;;;17.42;94.64
36380;BME280;22411;53.016;18.632;2023-05-07T10:02:06;101798.66;;;18.00;86.51
36380;BME280;22411;53.016;18.632;2023-05-07T10:04:33;101800.78;;;18.50;83.64
36380;BME280;22411;53.016;18.632;2023-05-07T10:07:04;101800.69;;;17.86;83.04
36380;BME280;22411;53.016;18.632;2023-05-07T10:09:34;101804.84;;;16.97;81.48
36380;BME280;22411;53.016;18.632;2023-05-07T10:12:05;101797.59;;;16.41;86.61
36380;BME280;22411;53.016;18.632;2023-05-07T10:14:46;101801.59;;;16.10;85.80
36380;BME280;22411;53.016;18.632;2023-05-07T10:17:16;101810.13;;;15.88;93.49
36380;BME280;22411;53.016;18.632;2023-05-07T10:19:46;101796.28;;;16.23;92.94
36380;BME280;22411;53.016;18.632;2023-05-07T10:22:24;101800.81;;;16.93;87.12
36380;BME280;22411;53.016;18.632;2023-05-07T10:25:01;101801.75;;;17.72;80.66
36380;BME280;22411;53.016;18.632;2023-05-07T10:28:05;101800.41;;;17.66;83.80
36380;BME280;22411;53.016;18.632;2023-05-07T10:31:15;101802.69;;;16.91;88.06
36380;BME280;22411;53.016;18.632;2023-05-07T10:33:52;101809.81;;;16.65;91.50
36380;BME280;22411;53.016;18.632;2023-05-07T10:36:27;101802.03;;;16.76;93.14
36380;BME280;22411;53.016;18.632;2023-05-07T10:39:04;101810.75;;;17.23;78.14
36380;BME280;22411;53.016;18.632;2023-05-07T10:41:37;101807.44;;;17.55;76.26
36380;BME280;22411;53.016;18.632;2023-05-07T10:44:11;101803.50;;;17.27;77.17
36380;BME280;22411;53.016;18.632;2023-05-07T10:47:15;101799.53;;;16.27;79.31
36380;BME280;22411;53.016;18.632;2023-05-07T10:50:30;101805.47;;;15.92;80.48
36380;BME280;22411;53.016;18.632;2023-05-07T10:59:46;101801.41;;;17.88;71.10
36380;BME280;22411;53.016;18.632;2023-05-07T11:05:28;101798.59;;;17.11;76.86
36380;BME280;22411;53.016;18.632;2023-05-07T11:08:00;101801.97;;;17.58;74.95
36380;BME280;22411;53.016;18.632;2023-05-07T11:10:53;101802.50;;;18.28;69.59
36380;BME280;22411;53.016;18.632;2023-05-07T11:13:57;101803.34;;;18.40;71.49
36380;BME280;22411;53.016;18.632;2023-05-07T11:16:28;101801.50;;;17.86;71.36
36380;BME280;22411;53.016;18.632;2023-05-07T11:18:56;101806.34;;;17.23;72.27
36380;BME280;22411;53.016;18.632;2023-05-07T11:21:38;101811.84;;;16.85;77.57
36380;BME280;22411;53.016;18.632;2023-05-07T11:24:06;101803.09;;;16.50;82.41
36380;BME280;22411;53.016;18.632;2023-05-07T11:26:50;101806.31;;;16.29;81.95
36380;BME280;22411;53.016;18.632;2023-05-07T11:29:21;101803.13;;;16.73;76.86
36380;BME280;22411;53.016;18.632;2023-05-07T11:31:49;101808.25;;;17.33;72.51
36380;BME280;22411;53.016;18.632;2023-05-07T11:34:23;101805.63;;;18.22;68.29
36380;BME280;22411;53.016;18.632;2023-05-07T11:36:50;101806.44;;;18.66;61.35
36380;BME280;22411;53.016;18.632;2023-05-07T11:39:32;101803.72;;;18.68;57.57
36380;BME280;22411;53.016;18.632;2023-05-07T11:42:00;101806.81;;;18.94;57.50
36380;BME280;22411;53.016;18.632;2023-05-07T11:44:49;101805.03;;;19.15;55.97
36380;BME280;22411;53.016;18.632;2023-05-07T11:47:18;101799.47;;;18.88;51.55
36380;BME280;22411;53.016;18.632;2023-05-07T11:49:49;101792.75;;;18.31;55.51
36380;BME280;22411;53.016;18.632;2023-05-07T11:52:17;101806.84;;;18.50;54.80
36380;BME280;22411;53.016;18.632;2023-05-07T11:54:55;101802.59;;;18.38;52.61
36380;BME280;22411;53.016;18.632;2023-05-07T11:57:22;101788.69;;;18.59;51.61
36380;BME280;22411;53.016;18.632;2023-05-07T11:59:53;101791.31;;;18.59;52.58
36380;BME280;22411;53.016;18.632;2023-05-07T12:02:20;101788.69;;;18.59;50.97
36380;BME280;22411;53.016;18.632;2023-05-07T12:04:46;101803.41;;;17.95;50.07
36380;BME280;22411;53.016;18.632;2023-05-07T12:07:14;101794.03;;;18.36;53.05
36380;BME280;22411;53.016;18.632;2023-05-07T12:09:47;101796.25;;;19.26;50.24
36380;BME280;22411;53.016;18.632;2023-05-07T12:12:13;101801.09;;;19.30;49.96
36380;BME280;22411;53.016;18.632;2023-05-07T12:14:44;101803.44;;;19.85;47.14
36380;BME280;22411;53.016;18.632;2023-05-07T12:17:14;101805.03;;;20.17;47.32
36380;BME280;22411;53.016;18.632;2023-05-07T12:19:44;101792.72;;;20.36;50.15
36380;BME280;22411;53.016;18.632;2023-05-07T12:22:10;101799.34;;;19.71;45.82
36380;BME280;22411;53.016;18.632;2023-05-07T12:24:47;101804.22;;;19.76;48.70
36380;BME280;22411;53.016;18.632;2023-05-07T12:27:15;101793.97;;;20.32;46.39
36380;BME280;22411;53.016;18.632;2023-05-07T12:29:46;101801.47;;;20.66;44.13
36380;BME280;22411;53.016;18.632;2023-05-07T12:32:20;101794.97;;;20.41;47.03
36380;BME280;22411;53.016;18.632;2023-05-07T12:34:51;101804.78;;;19.49;48.19
36380;BME280;22411;53.016;18.632;2023-05-07T12:37:23;101803.03;;;18.11;51.95
36380;BME280;22411;53.016;18.632;2023-05-07T12:40:04;101796.38;;;17.51;55.25
36380;BME280;22411;53.016;18.632;2023-05-07T12:42:36;101805.09;;;17.63;54.62
36380;BME280;22411;53.016;18.632;2023-05-07T12:45:10;101802.50;;;18.61;49.85
36380;BME280;22411;53.016;18.632;2023-05-07T12:47:37;101805.84;;;18.95;50.63
36380;BME280;22411;53.016;18.632;2023-05-07T12:50:07;101801.56;;;19.66;47.02
36380;BME280;22411;53.016;18.632;2023-05-07T12:52:34;101814.00;;;19.64;44.71
36380;BME280;22411;53.016;18.632;2023-05-07T12:55:09;101808.50;;;19.67;43.36